createdAt,value
2023-04-17T00:01:25.016Z,102631.31
2023-04-17T00:03:53.074Z,102632.88
2023-04-17T00:06:19.900Z,102646.69
2023-04-17T00:08:46.868Z,102634.38
2023-04-17T00:11:13.518Z,102636.91
2023-04-17T00:13:40.278Z,102631.63
2023-04-17T00:16:08.357Z,102631.53
2023-04-17T00:18:34.996Z,102638.41
2023-04-17T00:21:01.759Z,102638.22
2023-04-17T00:23:28.424Z,102640.69
2023-04-17T00:25:55.229Z,102640.59
2023-04-17T00:28:21.851Z,102639.56
2023-04-17T00:30:48.503Z,102640.34
2023-04-17T00:33:15.726Z,102646.56
2023-04-17T00:35:42.348Z,102639.56
2023-04-17T00:38:09.349Z,102643.94
2023-04-17T00:40:36.278Z,102641.31
2023-04-17T00:43:04.221Z,102639.47
2023-04-17T00:45:31.304Z,102639.44
2023-04-17T00:48:00.153Z,102642.84
2023-04-17T00:50:30.962Z,102643.72
2023-04-17T00:52:58.658Z,102643.63
2023-04-17T00:55:26.826Z,102638.28
2023-04-17T00:57:53.827Z,102650.47
2023-04-17T01:00:20.561Z,102658.28
2023-04-17T01:02:47.442Z,102655.59
2023-04-17T01:05:14.437Z,102652.97
2023-04-17T01:07:42.103Z,102652.03
2023-04-17T01:10:09.393Z,102653.69
2023-04-17T01:12:36.688Z,102658.94
2023-04-17T01:15:03.899Z,102660.75
2023-04-17T01:17:30.718Z,102662.59
2023-04-17T01:19:57.836Z,102666.91
2023-04-17T01:22:24.526Z,102662.41
2023-04-17T01:24:51.143Z,102671.75
2023-04-17T01:27:17.807Z,102668.09
2023-04-17T01:29:44.850Z,102675.97
2023-04-17T01:32:11.558Z,102675.06
2023-04-17T01:34:38.296Z,102682.06
2023-04-17T01:37:05.188Z,102680.41
2023-04-17T01:39:31.875Z,102683.03
2023-04-17T01:41:58.648Z,102679.47
2023-04-17T01:44:25.556Z,102685.50
2023-04-17T01:46:52.321Z,102682.84
2023-04-17T01:49:19.075Z,102685.38
2023-04-17T01:51:45.741Z,102686.19
2023-04-17T01:54:12.366Z,102690.53
2023-04-17T01:56:39.008Z,102684.34
2023-04-17T01:59:05.764Z,102685.13
2023-04-17T02:01:32.728Z,102682.44
2023-04-17T02:03:59.697Z,102680.63
2023-04-17T02:06:27.491Z,102685.81
2023-04-17T02:08:54.262Z,102687.59
2023-04-17T02:11:21.126Z,102692.13
2023-04-17T02:13:47.763Z,102695.63
2023-04-17T02:16:14.547Z,102684.13
2023-04-17T02:18:41.425Z,102690.19
2023-04-17T02:21:09.750Z,102691.06
2023-04-17T02:23:36.637Z,102691.84
2023-04-17T02:26:03.412Z,102702.41
2023-04-17T02:28:30.125Z,102695.44
2023-04-17T02:30:56.923Z,102705.03
2023-04-17T02:33:23.714Z,102701.53
2023-04-17T02:35:50.598Z,102700.69
2023-04-17T02:38:17.483Z,102705.03
2023-04-17T02:40:44.216Z,102703.31
2023-04-17T02:43:13.249Z,102698.00
2023-04-17T02:45:39.876Z,102701.44
2023-04-17T02:48:06.788Z,102701.44
2023-04-17T02:50:33.578Z,102708.41
2023-04-17T02:53:00.194Z,102710.94
2023-04-17T02:55:27.161Z,102712.53
2023-04-17T02:57:53.789Z,102719.38
2023-04-17T03:00:20.876Z,102715.72
2023-04-17T03:02:48.060Z,102719.88
2023-04-17T03:05:16.546Z,102715.47
2023-04-17T03:07:43.254Z,102725.88
2023-04-17T03:10:10.101Z,102723.25
2023-04-17T03:12:36.920Z,102722.25
2023-04-17T03:15:04.081Z,102724.78
2023-04-17T03:17:30.875Z,102732.66
2023-04-17T03:19:57.521Z,102721.94
2023-04-17T03:22:24.137Z,102720.91
2023-04-17T03:24:50.831Z,102731.25
2023-04-17T03:27:17.466Z,102736.41
2023-04-17T03:29:44.065Z,102731.97
2023-04-17T03:32:10.865Z,102730.06
2023-04-17T03:34:38.318Z,102733.53
2023-04-17T03:37:04.925Z,102743.06
2023-04-17T03:39:31.559Z,102738.63
2023-04-17T03:41:58.257Z,102744.72
2023-04-17T03:44:24.951Z,102741.34
2023-04-17T03:46:51.585Z,102751.88
2023-04-17T03:49:18.287Z,102753.72
2023-04-17T03:51:45.023Z,102753.81
2023-04-17T03:54:11.643Z,102757.34
2023-04-17T03:56:38.260Z,102757.38
2023-04-17T03:59:06.094Z,102764.28
2023-04-17T04:01:32.910Z,102770.41
2023-04-17T04:04:00.205Z,102767.72
2023-04-17T04:06:29.915Z,102769.53
2023-04-17T04:08:57.306Z,102762.66
2023-04-17T04:11:23.922Z,102765.41
2023-04-17T04:13:50.810Z,102763.75
2023-04-17T04:16:17.491Z,102769.78
2023-04-17T04:18:44.196Z,102772.41
2023-04-17T04:21:12.222Z,102774.06
2023-04-17T04:23:41.396Z,102781.97
2023-04-17T04:26:08.210Z,102781.97
2023-04-17T04:28:34.904Z,102788.22
2023-04-17T04:31:02.876Z,102792.69
2023-04-17T04:33:30.186Z,102790.00
2023-04-17T04:36:01.092Z,102796.91
2023-04-17T04:38:31.322Z,102800.50
2023-04-17T04:41:01.735Z,102804.91
2023-04-17T04:43:32.216Z,102802.28
2023-04-17T04:45:59.065Z,102808.47
2023-04-17T04:48:25.735Z,102811.97
2023-04-17T04:50:52.572Z,102811.97
2023-04-17T04:53:19.244Z,102816.53
2023-04-17T04:55:45.945Z,102815.81
2023-04-17T04:58:12.842Z,102815.09
2023-04-17T05:00:39.909Z,102823.06
2023-04-17T05:03:07.772Z,102815.34
2023-04-17T05:05:35.930Z,102816.31
2023-04-17T05:08:03.022Z,102827.84
2023-04-17T05:10:29.868Z,102821.97
2023-04-17T05:12:56.485Z,102825.66
2023-04-17T05:15:23.263Z,102825.81
2023-04-17T05:17:50.025Z,102831.22
2023-04-17T05:20:17.048Z,102837.59
2023-04-17T05:22:43.727Z,102831.66
2023-04-17T05:25:10.494Z,102838.84
2023-04-17T05:27:37.739Z,102833.78
2023-04-17T05:30:05.420Z,102839.25
2023-04-17T05:32:32.247Z,102846.41
2023-04-17T05:34:58.946Z,102842.22
2023-04-17T05:37:25.614Z,102848.56
2023-04-17T05:39:52.924Z,102845.25
2023-04-17T05:42:19.564Z,102843.66
2023-04-17T05:44:46.218Z,102842.09
2023-04-17T05:47:13.052Z,102850.22
2023-04-17T05:49:39.703Z,102849.47
2023-04-17T05:52:06.329Z,102848.81
2023-04-17T05:54:32.993Z,102851.63
2023-04-17T05:56:59.674Z,102852.66
2023-04-17T05:59:27.368Z,102850.28
2023-04-17T06:01:54.305Z,102852.28
2023-04-17T06:04:21.203Z,102849.09
2023-04-17T06:06:48.016Z,102854.50
2023-04-17T06:09:15.117Z,102852.13
2023-04-17T06:11:41.863Z,102859.31
2023-04-17T06:14:08.513Z,102869.13
2023-04-17T06:16:35.137Z,102860.53
2023-04-17T06:19:01.951Z,102864.19
2023-04-17T06:21:28.749Z,102855.63
2023-04-17T06:23:55.360Z,102861.09
2023-04-17T06:26:21.993Z,102854.25
2023-04-17T06:28:48.650Z,102855.28
2023-04-17T06:31:15.521Z,102857.22
2023-04-17T06:33:42.160Z,102853.97
2023-04-17T06:36:08.909Z,102859.47
2023-04-17T06:38:35.547Z,102855.22
2023-04-17T06:41:02.254Z,102860.66
2023-04-17T06:43:28.910Z,102857.41
2023-04-17T06:45:55.677Z,102864.59
2023-04-17T06:48:22.397Z,102863.91
2023-04-17T06:50:49.660Z,102860.56
2023-04-17T06:53:16.357Z,102865.19
2023-04-17T06:55:43.266Z,102869.72
2023-04-17T06:58:09.911Z,102869.88
2023-04-17T07:00:36.606Z,102867.41
2023-04-17T07:03:03.336Z,102868.47
2023-04-17T07:05:30.115Z,102870.34
2023-04-17T07:07:56.756Z,102878.41
2023-04-17T07:10:23.471Z,102867.97
2023-04-17T07:12:50.122Z,102882.19
2023-04-17T07:15:16.858Z,102867.34
2023-04-17T07:17:43.545Z,102871.00
2023-04-17T07:20:10.631Z,102874.66
2023-04-17T07:22:37.674Z,102870.31
2023-04-17T07:25:05.608Z,102877.47
2023-04-17T07:27:32.273Z,102878.44
2023-04-17T07:29:58.926Z,102880.31
2023-04-17T07:32:25.625Z,102880.44
2023-04-17T07:34:53.023Z,102888.47
2023-04-17T07:37:19.738Z,102877.94
2023-04-17T07:39:50.110Z,102886.88
2023-04-17T07:42:16.785Z,102893.13
2023-04-17T07:44:43.524Z,102891.41
2023-04-17T07:47:10.244Z,102892.34
2023-04-17T07:49:36.921Z,102896.00
2023-04-17T07:52:03.622Z,102894.25
2023-04-17T07:54:31.551Z,102896.06
2023-04-17T07:57:02.751Z,102899.66
2023-04-17T07:59:30.732Z,102892.66
2023-04-17T08:01:57.778Z,102905.06
2023-04-17T08:04:25.581Z,102890.97
2023-04-17T08:06:52.586Z,102894.53
2023-04-17T08:09:21.260Z,102893.69
2023-04-17T08:11:57.007Z,102890.16
2023-04-17T08:14:25.076Z,102899.91
2023-04-17T08:16:52.042Z,102896.38
2023-04-17T08:19:18.862Z,102895.47
2023-04-17T08:21:48.071Z,102897.13
2023-04-17T08:24:15.896Z,102897.81
2023-04-17T08:26:43.969Z,102898.44
2023-04-17T08:29:11.063Z,102896.31
2023-04-17T08:31:39.863Z,102899.50
2023-04-17T08:34:14.303Z,102900.88
2023-04-17T08:36:42.823Z,102900.53
2023-04-17T08:39:12.603Z,102903.75
2023-04-17T08:41:52.213Z,102901.41
2023-04-17T08:44:21.633Z,102907.13
2023-04-17T08:46:49.648Z,102901.34
2023-04-17T08:49:16.545Z,102907.19
2023-04-17T08:51:43.226Z,102907.09
2023-04-17T08:54:09.992Z,102913.28
2023-04-17T08:56:36.664Z,102905.38
2023-04-17T08:59:04.527Z,102913.59
2023-04-17T09:01:31.303Z,102911.28
2023-04-17T09:03:58.281Z,102906.16
2023-04-17T09:06:25.128Z,102916.97
2023-04-17T09:09:00.516Z,102914.16
2023-04-17T09:11:28.083Z,102919.09
2023-04-17T09:13:54.741Z,102929.03
2023-04-17T09:16:22.003Z,102927.22
2023-04-17T09:18:49.700Z,102916.66
2023-04-17T09:21:21.206Z,102917.88
2023-04-17T09:23:56.573Z,102917.06
2023-04-17T09:26:27.641Z,102912.94
2023-04-17T09:29:03.975Z,102911.78
2023-04-17T09:31:34.325Z,102909.06
2023-04-17T09:34:02.749Z,102920.75
2023-04-17T09:36:31.565Z,102916.41
2023-04-17T09:39:00.913Z,102914.81
2023-04-17T09:41:29.794Z,102912.66
2023-04-17T09:44:01.949Z,102922.03
2023-04-17T09:46:33.421Z,102917.25
2023-04-17T09:49:08.713Z,102922.22
2023-04-17T09:51:35.961Z,102921.56
2023-04-17T09:54:06.972Z,102924.25
2023-04-17T09:56:35.333Z,102921.75
2023-04-17T09:59:06.300Z,102925.59
2023-04-17T10:01:34.708Z,102922.06
2023-04-17T10:04:03.273Z,102927.28
2023-04-17T10:06:35.370Z,102913.69
2023-04-17T10:09:04.375Z,102913.28
2023-04-17T10:11:36.348Z,102928.22
2023-04-17T10:14:24.465Z,102925.31
2023-04-17T10:16:51.495Z,102930.50
2023-04-17T10:19:32.730Z,102928.69
2023-04-17T10:22:20.728Z,102926.81
2023-04-17T10:24:52.228Z,102927.53
2023-04-17T10:27:24.864Z,102916.63
2023-04-17T10:29:59.013Z,102924.81
2023-04-17T10:32:29.895Z,102929.94
2023-04-17T10:35:01.394Z,102923.56
2023-04-17T10:37:50.347Z,102916.38
2023-04-17T10:40:22.585Z,102930.28
2023-04-17T10:43:02.551Z,102921.81
2023-04-17T10:45:51.232Z,102918.72
2023-04-17T10:48:26.601Z,102923.19
2023-04-17T10:50:53.491Z,102930.44
2023-04-17T10:53:40.472Z,102938.69
2023-04-17T10:56:08.193Z,102940.59
2023-04-17T10:58:38.200Z,102934.09
2023-04-17T11:01:10.635Z,102935.59
2023-04-17T11:03:38.997Z,102926.81
2023-04-17T11:06:07.344Z,102945.41
2023-04-17T11:08:34.199Z,102947.75
2023-04-17T11:11:00.834Z,102941.97
2023-04-17T11:13:32.431Z,102940.00
2023-04-17T11:15:59.474Z,102938.28
2023-04-17T11:18:26.675Z,102950.50
2023-04-17T11:20:53.374Z,102946.63
2023-04-17T11:23:20.995Z,102946.41
2023-04-17T11:25:47.622Z,102952.50
2023-04-17T11:28:14.361Z,102943.34
2023-04-17T11:30:44.454Z,102947.69
2023-04-17T11:33:16.115Z,102952.31
2023-04-17T11:35:43.648Z,102954.25
2023-04-17T11:38:13.102Z,102945.94
2023-04-17T11:40:59.097Z,102945.56
2023-04-17T11:43:27.813Z,102950.03
2023-04-17T11:45:59.238Z,102945.69
2023-04-17T11:48:30.366Z,102949.34
2023-04-17T11:51:01.266Z,102950.06
2023-04-17T11:53:28.174Z,102958.63
2023-04-17T11:56:14.419Z,102954.84
2023-04-17T11:58:54.145Z,102952.38
2023-04-17T12:01:24.975Z,102961.31
2023-04-17T12:03:52.740Z,102957.44
2023-04-17T12:06:19.575Z,102953.34
2023-04-17T12:08:50.565Z,102961.13
2023-04-17T12:11:23.765Z,102952.22
2023-04-17T12:13:51.319Z,102958.72
2023-04-17T12:16:18.073Z,102959.78
2023-04-17T12:18:45.987Z,102960.38
2023-04-17T12:21:13.692Z,102960.19
2023-04-17T12:23:41.483Z,102959.19
2023-04-17T12:26:08.743Z,102963.25
2023-04-17T12:28:35.957Z,102959.34
2023-04-17T12:31:04.152Z,102959.16
2023-04-17T12:33:31.830Z,102968.00
2023-04-17T12:36:00.110Z,102966.84
2023-04-17T12:38:27.086Z,102963.94
2023-04-17T12:40:53.742Z,102962.53
2023-04-17T12:43:20.363Z,102960.97
2023-04-17T12:45:47.050Z,102960.03
2023-04-17T12:48:15.001Z,102958.69
2023-04-17T12:50:45.255Z,102965.81
2023-04-17T12:53:13.743Z,102964.84
2023-04-17T12:55:41.700Z,102956.81
2023-04-17T12:58:11.170Z,102962.03
2023-04-17T13:00:39.129Z,102964.25
2023-04-17T13:03:06.346Z,102971.84
2023-04-17T13:05:33.164Z,102960.72
2023-04-17T13:07:59.851Z,102972.75
2023-04-17T13:10:26.626Z,102976.13
2023-04-17T13:12:53.314Z,102975.34
2023-04-17T13:15:19.985Z,102979.84
2023-04-17T13:17:46.862Z,102980.69
2023-04-17T13:20:13.777Z,102980.78
2023-04-17T13:22:40.438Z,102985.38
2023-04-17T13:25:07.474Z,102965.75
2023-04-17T13:27:34.158Z,102982.03
2023-04-17T13:30:00.905Z,102977.94
2023-04-17T13:32:27.567Z,102984.53
2023-04-17T13:34:54.622Z,102983.09
2023-04-17T13:37:22.091Z,102986.72
2023-04-17T13:39:48.781Z,102985.75
2023-04-17T13:42:16.872Z,102985.75
2023-04-17T13:44:43.570Z,102980.63
2023-04-17T13:47:10.295Z,102988.97
2023-04-17T13:49:37.043Z,102993.69
2023-04-17T13:52:03.830Z,102989.53
2023-04-17T13:54:30.583Z,102991.78
2023-04-17T13:56:58.244Z,102977.94
2023-04-17T13:59:25.260Z,102988.03
2023-04-17T14:01:52.056Z,102992.84
2023-04-17T14:04:18.982Z,102990.34
2023-04-17T14:06:49.548Z,102998.69
2023-04-17T14:09:17.351Z,102998.81
2023-04-17T14:11:43.950Z,103005.22
2023-04-17T14:14:12.758Z,103007.16
2023-04-17T14:16:43.289Z,102997.41
2023-04-17T14:19:13.833Z,103002.81
2023-04-17T14:21:41.965Z,103010.00
2023-04-17T14:24:09.070Z,103005.41
2023-04-17T14:26:37.455Z,103008.72
2023-04-17T14:29:04.658Z,103009.28
2023-04-17T14:31:31.869Z,103014.31
2023-04-17T14:33:58.738Z,103004.06
2023-04-17T14:36:26.057Z,103008.78
2023-04-17T14:38:54.290Z,103025.22
2023-04-17T14:41:21.166Z,103009.63
2023-04-17T14:43:47.832Z,103012.78
2023-04-17T14:46:14.579Z,103016.91
2023-04-17T14:48:54.146Z,103017.41
2023-04-17T14:51:23.742Z,103019.56
2023-04-17T14:53:53.178Z,103020.22
2023-04-17T14:56:21.631Z,103019.06
2023-04-17T14:58:48.735Z,103022.56
2023-04-17T15:01:15.686Z,103031.63
2023-04-17T15:03:46.713Z,103022.81
2023-04-17T15:06:14.884Z,103024.75
2023-04-17T15:08:41.733Z,103022.06
2023-04-17T15:11:08.806Z,103026.28
2023-04-17T15:13:36.020Z,103018.41
2023-04-17T15:16:03.520Z,103018.03
2023-04-17T15:18:30.839Z,103021.16
2023-04-17T15:20:57.721Z,103023.19
2023-04-17T15:23:26.518Z,103021.72
2023-04-17T15:25:57.513Z,103022.28
2023-04-17T15:28:24.979Z,103016.47
2023-04-17T15:30:51.601Z,103012.41
2023-04-17T15:33:18.385Z,103022.69
2023-04-17T15:35:45.062Z,103024.09
2023-04-17T15:38:12.113Z,103030.72
2023-04-17T15:40:38.902Z,103034.66
2023-04-17T15:43:05.582Z,103028.59
2023-04-17T15:45:32.243Z,103034.06
2023-04-17T15:48:00.967Z,103027.81
2023-04-17T15:50:27.686Z,103031.25
2023-04-17T15:52:54.286Z,103031.81
2023-04-17T15:55:20.976Z,103033.47
2023-04-17T15:57:47.648Z,103039.88
2023-04-17T16:00:14.780Z,103037.19
2023-04-17T16:02:41.571Z,103037.13
2023-04-17T16:05:08.697Z,103035.34
2023-04-17T16:07:35.352Z,103048.13
2023-04-17T16:10:02.203Z,103050.06
2023-04-17T16:12:28.909Z,103056.50
2023-04-17T16:14:55.533Z,103066.50
2023-04-17T16:17:22.207Z,103064.16
2023-04-17T16:19:50.614Z,103062.72
2023-04-17T16:22:18.509Z,103059.50
2023-04-17T16:24:45.204Z,103066.00
2023-04-17T16:27:11.872Z,103067.06
2023-04-17T16:29:38.530Z,103072.47
2023-04-17T16:32:05.344Z,103068.06
2023-04-17T16:34:31.951Z,103067.25
2023-04-17T16:36:58.552Z,103075.34
2023-04-17T16:39:25.697Z,103074.59
2023-04-17T16:41:52.914Z,103074.91
2023-04-17T16:44:19.926Z,103068.16
2023-04-17T16:47:09.578Z,103073.88
2023-04-17T16:49:33.255Z,103084.00
2023-04-17T16:51:59.865Z,103085.19
2023-04-17T16:54:26.532Z,103092.47
2023-04-17T16:56:53.203Z,103092.63
2023-04-17T16:59:19.934Z,103093.69
2023-04-17T17:01:49.928Z,103104.56
2023-04-17T17:04:16.935Z,103108.31
2023-04-17T17:06:43.612Z,103107.66
2023-04-17T17:09:10.449Z,103111.41
2023-04-17T17:11:37.241Z,103104.44
2023-04-17T17:14:03.873Z,103119.75
2023-04-17T17:16:30.560Z,103120.81
2023-04-17T17:18:57.225Z,103114.69
2023-04-17T17:21:23.835Z,103116.56
2023-04-17T17:23:50.504Z,103119.31
2023-04-17T17:26:17.771Z,103121.13
2023-04-17T17:28:50.799Z,103126.63
2023-04-17T17:31:17.641Z,103129.38
2023-04-17T17:33:44.913Z,103133.94
2023-04-17T17:36:12.053Z,103139.34
2023-04-17T17:38:39.026Z,103139.50
2023-04-17T17:41:05.793Z,103135.22
2023-04-17T17:43:32.405Z,103137.09
2023-04-17T17:45:59.118Z,103142.53
2023-04-17T17:48:25.889Z,103141.72
2023-04-17T17:50:57.403Z,103135.56
2023-04-17T17:53:26.353Z,103148.06
2023-04-17T17:55:54.983Z,103151.66
2023-04-17T17:58:22.048Z,103150.78
2023-04-17T18:00:51.741Z,103154.38
2023-04-17T18:03:19.205Z,103154.41
2023-04-17T18:05:46.872Z,103157.09
2023-04-17T18:08:14.799Z,103158.91
2023-04-17T18:10:41.447Z,103163.34
2023-04-17T18:13:08.330Z,103167.81
2023-04-17T18:15:36.183Z,103168.72
2023-04-17T18:18:02.990Z,103166.09
2023-04-17T18:20:29.834Z,103175.84
2023-04-17T18:22:56.516Z,103173.22
2023-04-17T18:25:23.422Z,103175.88
2023-04-17T18:27:50.162Z,103168.84
2023-04-17T18:30:16.852Z,103180.34
2023-04-17T18:32:43.560Z,103179.47
2023-04-17T18:35:10.309Z,103183.00
2023-04-17T18:37:37.674Z,103183.00
2023-04-17T18:40:07.230Z,103185.66
2023-04-17T18:42:34.030Z,103177.69
2023-04-17T18:45:00.990Z,103187.44
2023-04-17T18:47:28.015Z,103188.31
2023-04-17T18:49:54.835Z,103193.63
2023-04-17T18:52:21.579Z,103198.94
2023-04-17T18:54:48.320Z,103209.53
2023-04-17T18:57:15.047Z,103194.50
2023-04-17T18:59:43.243Z,103198.91
2023-04-17T19:02:10.210Z,103199.78
2023-04-17T19:04:36.907Z,103204.19
2023-04-17T19:07:03.677Z,103203.28
2023-04-17T19:09:30.402Z,103206.81
2023-04-17T19:11:58.569Z,103211.22
2023-04-17T19:14:25.590Z,103208.53
2023-04-17T19:16:53.421Z,103209.38
2023-04-17T19:19:20.203Z,103207.56
2023-04-17T19:21:47.626Z,103208.41
2023-04-17T19:24:14.290Z,103209.28
2023-04-17T19:26:41.280Z,103203.97
2023-04-17T19:29:07.967Z,103207.47
2023-04-17T19:31:34.726Z,103204.78
2023-04-17T19:34:01.679Z,103203.88
2023-04-17T19:36:28.450Z,103208.25
2023-04-17T19:38:59.129Z,103215.31
2023-04-17T19:41:26.446Z,103214.38
2023-04-17T19:43:54.233Z,103214.31
2023-04-17T19:46:22.888Z,103219.59
2023-04-17T19:48:50.932Z,103221.28
2023-04-17T19:51:17.679Z,103210.69
2023-04-17T19:53:44.953Z,103219.44
2023-04-17T19:56:11.639Z,103217.63
2023-04-17T19:58:38.782Z,103215.81
2023-04-17T20:01:05.704Z,103224.63
2023-04-17T20:03:33.159Z,103219.31
2023-04-17T20:06:03.513Z,103223.69
2023-04-17T20:08:30.503Z,103221.00
2023-04-17T20:10:57.117Z,103219.19
2023-04-17T20:13:23.865Z,103219.16
2023-04-17T20:15:50.513Z,103225.34
2023-04-17T20:18:17.755Z,103222.69
2023-04-17T20:20:44.450Z,103230.63
2023-04-17T20:23:11.134Z,103227.06
2023-04-17T20:25:37.819Z,103224.38
2023-04-17T20:28:04.818Z,103238.44
2023-04-17T20:30:31.526Z,103226.03
2023-04-17T20:32:58.414Z,103222.44
2023-04-17T20:35:25.186Z,103226.75
2023-04-17T20:37:52.439Z,103227.53
2023-04-17T20:40:19.401Z,103234.44
2023-04-17T20:42:47.125Z,103239.69
2023-04-17T20:45:14.735Z,103238.81
2023-04-17T20:47:55.905Z,103244.91
2023-04-17T20:50:23.884Z,103249.22
2023-04-17T20:52:50.763Z,103243.84
2023-04-17T20:55:19.802Z,103241.16
2023-04-17T20:57:47.107Z,103250.75
2023-04-17T21:00:14.299Z,103255.97
2023-04-17T21:02:41.193Z,103251.47
2023-04-17T21:05:09.136Z,103261.88
2023-04-17T21:07:36.656Z,103253.03
2023-04-17T21:10:03.824Z,103254.69
2023-04-17T21:12:32.901Z,103249.38
2023-04-17T21:14:59.780Z,103248.47
2023-04-17T21:17:26.465Z,103258.97
2023-04-17T21:19:55.780Z,103254.53
2023-04-17T21:22:22.385Z,103254.47
2023-04-17T21:24:49.011Z,103254.38
2023-04-17T21:27:15.636Z,103264.00
2023-04-17T21:29:42.335Z,103264.84
2023-04-17T21:32:09.051Z,103259.47
2023-04-17T21:34:35.793Z,103268.19
2023-04-17T21:37:03.653Z,103269.00
2023-04-17T21:39:32.906Z,103266.34
2023-04-17T21:42:00.048Z,103267.19
2023-04-17T21:44:26.701Z,103267.13
2023-04-17T21:46:53.386Z,103277.75
2023-04-17T21:49:21.024Z,103274.19
2023-04-17T21:51:47.693Z,103279.44
2023-04-17T21:54:14.622Z,103282.81
2023-04-17T21:56:41.716Z,103280.97
2023-04-17T21:59:08.324Z,103285.31
2023-04-17T22:01:35.109Z,103284.41
2023-04-17T22:04:01.930Z,103283.50
2023-04-17T22:06:28.575Z,103286.06
2023-04-17T22:08:55.344Z,103288.63
2023-04-17T22:11:23.084Z,103294.63
2023-04-17T22:13:49.908Z,103288.38
2023-04-17T22:16:16.603Z,103292.69
2023-04-17T22:18:43.266Z,103290.00
2023-04-17T22:21:09.882Z,103295.13
2023-04-17T22:23:36.484Z,103294.97
2023-04-17T22:26:03.319Z,103287.78
2023-04-17T22:28:31.185Z,103284.19
2023-04-17T22:30:59.304Z,103293.00
2023-04-17T22:33:26.333Z,103296.50
2023-04-17T22:35:53.399Z,103288.53
2023-04-17T22:38:21.212Z,103289.47
2023-04-17T22:40:48.493Z,103285.13
2023-04-17T22:43:15.444Z,103291.25
2023-04-17T22:45:42.447Z,103284.13
2023-04-17T22:48:09.160Z,103295.56
2023-04-17T22:50:37.852Z,103294.72
2023-04-17T22:53:04.586Z,103294.66
2023-04-17T22:55:31.314Z,103291.09
2023-04-17T22:57:57.976Z,103286.69
2023-04-17T23:00:25.427Z,103289.25
2023-04-17T23:02:52.516Z,103296.22
2023-04-17T23:05:19.455Z,103302.22
2023-04-17T23:07:46.244Z,103295.91
2023-04-17T23:10:12.876Z,103302.88
2023-04-17T23:12:39.470Z,103296.66
2023-04-17T23:15:08.275Z,103289.47
2023-04-17T23:17:35.013Z,103296.44
2023-04-17T23:20:01.644Z,103296.34
2023-04-17T23:22:28.289Z,103296.34
2023-04-17T23:24:54.949Z,103291.78
2023-04-17T23:27:21.552Z,103291.75
2023-04-17T23:29:48.188Z,103296.06
2023-04-17T23:32:15.193Z,103304.78
2023-04-17T23:34:41.973Z,103302.09
2023-04-17T23:37:09.308Z,103294.94
2023-04-17T23:39:35.978Z,103303.66
2023-04-17T23:42:07.219Z,103306.22
2023-04-17T23:44:34.722Z,103302.63
2023-04-17T23:47:02.073Z,103300.00
2023-04-17T23:49:28.795Z,103307.00
2023-04-17T23:51:55.534Z,103309.66
2023-04-17T23:54:22.209Z,103309.53
2023-04-17T23:56:48.910Z,103314.75
2023-04-17T23:59:15.601Z,103322.50
